createdAt,value
2018-11-14T00:00:28.319Z,5.80
2018-11-14T00:02:58.483Z,6.90
2018-11-14T00:05:28.090Z,6.70
2018-11-14T00:07:57.595Z,6.33
2018-11-14T00:10:27.096Z,7.17
2018-11-14T00:12:56.379Z,5.23
2018-11-14T00:15:26.398Z,7.70
2018-11-14T00:17:55.799Z,5.37
2018-11-14T00:20:25.260Z,9.37
2018-11-14T00:22:54.512Z,7.80
2018-11-14T00:25:24.022Z,8.67
2018-11-14T00:27:53.581Z,6.93
2018-11-14T00:30:25.179Z,6.10
2018-11-14T00:32:54.813Z,6.70
2018-11-14T00:35:24.057Z,6.70
2018-11-14T00:37:53.388Z,6.97
2018-11-14T00:40:22.892Z,8.90
2018-11-14T00:42:52.291Z,7.73
2018-11-14T00:45:23.201Z,7.53
2018-11-14T00:47:52.837Z,5.70
2018-11-14T00:50:22.238Z,6.90
2018-11-14T00:52:51.566Z,8.87
2018-11-14T00:55:22.168Z,6.53
2018-11-14T00:57:52.672Z,7.47
2018-11-14T01:00:24.249Z,7.67
2018-11-14T01:02:53.823Z,7.63
2018-11-14T01:05:23.123Z,8.43
2018-11-14T01:07:52.335Z,7.07
2018-11-14T01:10:22.439Z,9.77
2018-11-14T01:12:52.118Z,7.13
2018-11-14T01:15:22.709Z,9.57
2018-11-14T01:17:51.993Z,7.70
2018-11-14T01:20:22.249Z,8.67
2018-11-14T01:22:51.510Z,7.60
2018-11-14T01:25:20.927Z,8.57
2018-11-14T01:27:50.432Z,9.40
2018-11-14T01:30:21.028Z,10.00
2018-11-14T01:32:50.770Z,7.37
2018-11-14T01:35:20.218Z,10.67
2018-11-14T01:37:49.782Z,9.47
2018-11-14T01:40:21.637Z,9.17
2018-11-14T01:42:53.560Z,12.17
2018-11-14T01:45:23.412Z,8.13
2018-11-14T01:47:52.915Z,11.73
2018-11-14T01:50:22.318Z,9.53
2018-11-14T01:52:51.723Z,10.53
2018-11-14T01:55:21.803Z,12.37
2018-11-14T01:57:51.243Z,10.93
2018-11-14T02:00:23.044Z,9.87
2018-11-14T02:02:52.502Z,11.00
2018-11-14T02:05:22.005Z,9.43
2018-11-14T02:07:51.411Z,14.33
2018-11-14T02:10:21.535Z,9.90
2018-11-14T02:12:51.040Z,10.33
2018-11-14T02:15:23.614Z,9.57
2018-11-14T02:17:54.549Z,11.60
2018-11-14T02:20:23.844Z,12.50
2018-11-14T02:22:53.351Z,9.87
2018-11-14T02:25:22.759Z,9.53
2018-11-14T02:27:52.003Z,11.43
2018-11-14T02:30:22.832Z,9.07
2018-11-14T02:32:52.284Z,12.00
2018-11-14T02:35:21.498Z,10.67
2018-11-14T02:37:50.879Z,9.70
2018-11-14T02:40:21.323Z,12.77
2018-11-14T02:42:50.814Z,10.97
2018-11-14T02:45:20.064Z,14.73
2018-11-14T02:47:49.559Z,12.60
2018-11-14T02:50:19.237Z,12.43
2018-11-14T02:52:48.731Z,12.23
2018-11-14T02:55:18.699Z,12.83
2018-11-14T02:57:48.146Z,13.50
2018-11-14T03:00:18.831Z,10.33
2018-11-14T03:02:48.368Z,13.67
2018-11-14T03:05:17.888Z,11.50
2018-11-14T03:07:47.179Z,12.60
2018-11-14T03:10:18.824Z,11.70
2018-11-14T03:12:48.243Z,9.47
2018-11-14T03:15:19.593Z,12.93
2018-11-14T03:17:48.951Z,13.63
2018-11-14T03:20:19.465Z,13.17
2018-11-14T03:22:48.705Z,11.03
2018-11-14T03:25:17.922Z,14.77
2018-11-14T03:27:47.315Z,14.10
2018-11-14T03:30:17.999Z,12.07
2018-11-14T03:32:47.451Z,13.50
2018-11-14T03:35:16.866Z,12.47
2018-11-14T03:37:46.358Z,11.83
2018-11-14T03:40:16.962Z,14.27
2018-11-14T03:42:46.353Z,11.70
2018-11-14T03:45:16.202Z,13.87
2018-11-14T03:47:45.606Z,14.27
2018-11-14T03:50:15.106Z,9.17
2018-11-14T03:52:44.410Z,11.77
2018-11-14T03:55:13.808Z,10.93
2018-11-14T03:57:43.113Z,11.13
2018-11-14T04:00:14.718Z,12.67
2018-11-14T04:02:45.038Z,12.90
2018-11-14T04:05:14.369Z,12.47
2018-11-14T04:07:43.675Z,12.13
2018-11-14T04:10:13.808Z,13.70
2018-11-14T04:12:43.419Z,12.83
2018-11-14T04:15:13.825Z,11.30
2018-11-14T04:17:43.234Z,12.60
2018-11-14T04:20:14.143Z,13.23
2018-11-14T04:22:43.775Z,15.00
2018-11-14T04:25:14.999Z,12.47
2018-11-14T04:27:45.021Z,12.77
2018-11-14T04:30:15.518Z,15.90
2018-11-14T04:32:45.181Z,11.93
2018-11-14T04:35:15.473Z,11.60
2018-11-14T04:37:45.115Z,12.83
2018-11-14T04:40:16.773Z,13.23
2018-11-14T04:42:45.996Z,10.70
2018-11-14T04:45:17.611Z,9.30
2018-11-14T04:47:46.948Z,8.40
2018-11-14T04:50:21.348Z,9.60
2018-11-14T04:52:51.458Z,12.27
2018-11-14T04:55:21.976Z,11.13
2018-11-14T04:57:51.435Z,14.87
2018-11-14T05:00:21.744Z,13.80
2018-11-14T05:02:51.514Z,10.13
2018-11-14T05:05:22.203Z,9.37
2018-11-14T05:07:51.652Z,9.57
2018-11-14T05:10:23.506Z,9.80
2018-11-14T05:12:53.400Z,10.33
2018-11-14T05:15:23.951Z,9.20
2018-11-14T05:17:53.622Z,8.60
2018-11-14T05:20:23.227Z,9.60
2018-11-14T05:22:52.667Z,9.50
2018-11-14T05:25:21.891Z,8.10
2018-11-14T05:27:51.368Z,9.50
2018-11-14T05:30:22.203Z,7.00
2018-11-14T05:32:51.895Z,6.73
2018-11-14T05:35:21.314Z,6.93
2018-11-14T05:37:51.023Z,8.63
2018-11-14T05:40:21.809Z,8.57
2018-11-14T05:42:51.778Z,6.97
2018-11-14T05:45:26.447Z,10.00
2018-11-14T05:47:55.800Z,7.57
2018-11-14T05:50:25.222Z,6.10
2018-11-14T05:52:54.704Z,8.70
2018-11-14T05:55:23.957Z,9.43
2018-11-14T05:57:53.302Z,10.33
2018-11-14T06:00:30.077Z,9.03
2018-11-14T06:03:00.317Z,14.23
2018-11-14T06:05:29.636Z,12.93
2018-11-14T06:07:59.204Z,11.67
2018-11-14T06:10:28.462Z,10.67
2018-11-14T06:12:57.674Z,12.90
2018-11-14T06:15:27.195Z,13.13
2018-11-14T06:17:57.362Z,11.03
2018-11-14T06:20:26.725Z,10.50
2018-11-14T06:22:56.226Z,11.23
2018-11-14T06:25:29.533Z,10.13
2018-11-14T06:27:59.590Z,11.33
2018-11-14T06:30:29.349Z,11.97
2018-11-14T06:32:59.389Z,13.07
2018-11-14T06:35:28.717Z,15.03
2018-11-14T06:37:58.126Z,11.37
2018-11-14T06:40:27.490Z,12.73
2018-11-14T06:42:56.869Z,12.33
2018-11-14T06:45:27.564Z,11.80
2018-11-14T06:47:58.023Z,10.93
2018-11-14T06:50:27.527Z,10.73
2018-11-14T06:52:58.178Z,15.43
2018-11-14T06:55:27.469Z,12.90
2018-11-14T06:57:56.831Z,13.77
2018-11-14T07:00:28.521Z,14.23
2018-11-14T07:02:58.269Z,15.30
2018-11-14T07:05:27.696Z,14.97
2018-11-14T07:07:57.279Z,20.60
2018-11-14T07:10:28.168Z,24.93
2018-11-14T07:13:02.826Z,27.07
2018-11-14T07:15:32.611Z,27.57
2018-11-14T07:18:01.944Z,30.07
2018-11-14T07:20:33.643Z,31.23
2018-11-14T07:23:03.452Z,22.20
2018-11-14T07:25:33.800Z,22.53
2018-11-14T07:28:04.157Z,17.33
2018-11-14T07:30:35.049Z,18.57
2018-11-14T07:33:06.402Z,22.43
2018-11-14T07:35:36.491Z,24.67
2018-11-14T07:38:47.196Z,20.13
2018-11-14T07:41:19.428Z,21.90
2018-11-14T07:43:49.763Z,20.37
2018-11-14T07:46:20.011Z,20.60
2018-11-14T07:48:50.980Z,17.03
2018-11-14T07:51:21.219Z,17.17
2018-11-14T07:53:51.444Z,20.23
2018-11-14T07:56:21.348Z,17.77
2018-11-14T07:58:51.233Z,16.73
2018-11-14T08:01:21.253Z,14.83
2018-11-14T08:03:51.139Z,15.40
2018-11-14T08:06:21.065Z,16.47
2018-11-14T08:08:50.692Z,15.53
2018-11-14T08:11:20.356Z,14.80
2018-11-14T08:13:50.412Z,14.50
2018-11-14T08:16:20.226Z,12.87
2018-11-14T08:18:50.237Z,12.77
2018-11-14T08:21:20.235Z,11.63
2018-11-14T08:23:49.851Z,10.00
2018-11-14T08:26:19.278Z,9.87
2018-11-14T08:28:48.749Z,9.07
2018-11-14T08:31:18.155Z,11.73
2018-11-14T08:33:47.369Z,11.30
2018-11-14T08:36:16.850Z,10.00
2018-11-14T08:38:46.187Z,11.30
2018-11-14T08:41:15.550Z,11.70
2018-11-14T08:43:44.953Z,9.10
2018-11-14T08:46:14.544Z,10.77
2018-11-14T08:48:43.964Z,10.33
2018-11-14T08:51:13.360Z,11.40
2018-11-14T08:53:42.872Z,13.70
2018-11-14T08:56:12.581Z,11.40
2018-11-14T08:58:42.081Z,15.37
2018-11-14T09:01:13.735Z,11.33
2018-11-14T09:03:43.138Z,10.00
2018-11-14T09:06:12.556Z,9.67
2018-11-14T09:08:41.943Z,12.27
2018-11-14T09:11:11.480Z,11.70
2018-11-14T09:13:40.948Z,13.97
2018-11-14T09:16:10.453Z,10.37
2018-11-14T09:18:39.734Z,12.60
2018-11-14T09:21:09.159Z,11.33
2018-11-14T09:23:38.401Z,13.77
2018-11-14T09:26:07.824Z,9.90
2018-11-14T09:28:37.046Z,11.30
2018-11-14T09:31:06.458Z,10.80
2018-11-14T09:33:35.861Z,8.40
2018-11-14T09:36:05.199Z,7.87
2018-11-14T09:38:34.557Z,8.80
2018-11-14T09:41:04.249Z,11.80
2018-11-14T09:43:33.568Z,16.93
2018-11-14T09:46:02.864Z,10.47
2018-11-14T09:48:32.398Z,12.07
2018-11-14T09:51:01.771Z,11.50
2018-11-14T09:53:31.044Z,12.27
2018-11-14T09:56:00.777Z,11.17
2018-11-14T09:58:30.177Z,10.20
2018-11-14T10:00:59.682Z,10.83
2018-11-14T10:03:29.025Z,12.27
2018-11-14T10:05:58.396Z,11.00
2018-11-14T10:08:28.751Z,11.57
2018-11-14T10:10:58.275Z,12.80
2018-11-14T10:13:27.630Z,11.63
2018-11-14T10:15:57.118Z,11.07
2018-11-14T10:18:26.667Z,11.50
2018-11-14T10:20:56.126Z,12.30
2018-11-14T10:23:25.431Z,12.73
2018-11-14T10:25:54.929Z,13.33
2018-11-14T10:28:24.437Z,12.00
2018-11-14T10:30:53.726Z,16.43
2018-11-14T10:33:23.035Z,14.70
2018-11-14T10:35:52.434Z,12.60
2018-11-14T10:38:21.836Z,11.50
2018-11-14T10:40:51.235Z,10.17
2018-11-14T10:43:20.847Z,11.47
2018-11-14T10:45:50.349Z,14.13
2018-11-14T10:48:20.053Z,15.77
2018-11-14T10:50:50.604Z,13.70
2018-11-14T10:53:20.220Z,18.90
2018-11-14T10:55:49.596Z,10.73
2018-11-14T10:58:18.887Z,9.83
2018-11-14T11:00:49.218Z,9.00
2018-11-14T11:03:24.150Z,31.73
2018-11-14T11:05:58.979Z,27.63
2018-11-14T11:08:33.538Z,11.43
2018-11-14T11:11:09.131Z,10.93
2018-11-14T11:14:12.758Z,7.63
2018-11-14T11:16:48.470Z,7.60
2018-11-14T11:19:19.432Z,7.23
2018-11-14T11:21:48.839Z,7.50
2018-11-14T11:24:20.191Z,9.03
2018-11-14T11:26:49.586Z,8.10
2018-11-14T11:29:19.092Z,6.17
2018-11-14T11:31:48.518Z,7.10
2018-11-14T11:34:17.932Z,6.47
2018-11-14T11:36:47.297Z,7.57
2018-11-14T11:39:17.754Z,5.50
2018-11-14T11:41:47.624Z,5.73
2018-11-14T11:44:17.075Z,7.40
2018-11-14T11:46:46.644Z,7.93
2018-11-14T11:49:16.094Z,8.13
2018-11-14T11:51:45.451Z,6.10
2018-11-14T11:54:14.685Z,5.77
2018-11-14T11:56:44.152Z,6.07
2018-11-14T11:59:13.340Z,6.87
2018-11-14T12:01:42.748Z,5.43
2018-11-14T12:04:12.149Z,4.83
2018-11-14T12:06:41.654Z,6.90
2018-11-14T12:09:12.236Z,5.47
2018-11-14T12:11:41.792Z,5.20
2018-11-14T12:14:11.297Z,5.60
2018-11-14T12:16:40.599Z,4.93
2018-11-14T12:19:10.016Z,5.20
2018-11-14T12:21:39.496Z,5.33
2018-11-14T12:24:08.774Z,5.47
2018-11-14T12:26:38.300Z,6.73
2018-11-14T12:29:07.558Z,17.43
2018-11-14T12:31:37.226Z,10.10
2018-11-14T12:34:07.049Z,8.97
2018-11-14T12:36:36.888Z,6.40
2018-11-14T12:39:08.412Z,5.63
2018-11-14T12:41:37.892Z,7.50
2018-11-14T12:44:07.396Z,9.50
2018-11-14T12:46:36.739Z,6.80
2018-11-14T12:49:06.199Z,12.07
2018-11-14T12:51:35.699Z,7.63
2018-11-14T12:54:05.207Z,7.07
2018-11-14T12:56:34.792Z,6.50
2018-11-14T12:59:04.214Z,8.60
2018-11-14T13:01:34.119Z,5.63
2018-11-14T13:04:03.648Z,8.77
2018-11-14T13:06:33.284Z,6.80
2018-11-14T13:09:02.982Z,7.07
2018-11-14T13:11:32.813Z,6.63
2018-11-14T13:14:02.663Z,5.20
2018-11-14T13:16:32.377Z,5.63
2018-11-14T13:19:02.199Z,6.63
2018-11-14T13:21:31.797Z,5.43
2018-11-14T13:24:01.404Z,5.23
2018-11-14T13:26:31.011Z,6.20
2018-11-14T13:29:00.381Z,3.70
2018-11-14T13:31:29.925Z,4.33
2018-11-14T13:33:59.421Z,6.73
2018-11-14T13:36:28.821Z,4.37
2018-11-14T13:38:58.223Z,4.13
2018-11-14T13:41:27.521Z,4.90
2018-11-14T13:43:57.143Z,6.47
2018-11-14T13:46:26.649Z,5.23
2018-11-14T13:48:56.096Z,7.13
2018-11-14T13:51:25.441Z,5.43
2018-11-14T13:53:54.885Z,6.17
2018-11-14T13:56:24.370Z,6.80
2018-11-14T13:58:53.753Z,6.90
2018-11-14T14:01:23.640Z,4.67
2018-11-14T14:03:52.986Z,6.57
2018-11-14T14:06:22.460Z,4.63
2018-11-14T14:08:51.762Z,5.50
2018-11-14T14:11:21.172Z,4.50
2018-11-14T14:13:55.789Z,4.97
2018-11-14T14:16:25.329Z,4.40
2018-11-14T14:18:54.716Z,6.30
2018-11-14T14:21:25.120Z,5.83
2018-11-14T14:23:54.729Z,6.73
2018-11-14T14:26:24.127Z,5.47
2018-11-14T14:28:53.644Z,6.73
2018-11-14T14:31:23.370Z,6.17
2018-11-14T14:33:52.847Z,5.47
2018-11-14T14:36:22.552Z,5.83
2018-11-14T14:38:52.160Z,6.23
2018-11-14T14:41:21.664Z,7.30
2018-11-14T14:43:51.390Z,7.97
2018-11-14T14:46:20.775Z,9.30
2018-11-14T14:48:50.312Z,7.93
2018-11-14T14:51:19.681Z,6.70
2018-11-14T14:53:49.407Z,10.57
2018-11-14T14:56:19.100Z,7.53
2018-11-14T14:58:48.601Z,8.33
2018-11-14T15:01:22.202Z,6.80
2018-11-14T15:03:51.498Z,8.37
2018-11-14T15:06:21.340Z,8.83
2018-11-14T15:08:50.818Z,7.73
2018-11-14T15:11:20.220Z,9.50
2018-11-14T15:13:49.681Z,9.90
2018-11-14T15:16:19.243Z,9.53
2018-11-14T15:18:48.721Z,8.03
2018-11-14T15:21:18.134Z,7.83
2018-11-14T15:23:47.945Z,8.83
2018-11-14T15:26:17.437Z,8.53
2018-11-14T15:28:47.125Z,9.37
2018-11-14T15:31:16.663Z,9.20
2018-11-14T15:33:46.168Z,13.37
2018-11-14T15:36:15.568Z,11.00
2018-11-14T15:38:45.097Z,12.47
2018-11-14T15:41:14.486Z,12.27
2018-11-14T15:43:43.798Z,12.30
2018-11-14T15:46:13.282Z,12.90
2018-11-14T15:48:42.783Z,14.70
2018-11-14T15:51:12.731Z,11.90
2018-11-14T15:53:42.408Z,11.73
2018-11-14T15:56:12.713Z,11.63
2018-11-14T15:58:42.224Z,11.97
2018-11-14T16:01:11.769Z,12.63
2018-11-14T16:03:41.339Z,15.00
2018-11-14T16:06:10.847Z,12.93
2018-11-14T16:08:41.153Z,12.43
2018-11-14T16:11:10.859Z,13.10
2018-11-14T16:13:40.592Z,13.37
2018-11-14T16:16:10.300Z,13.90
2018-11-14T16:18:40.007Z,12.63
2018-11-14T16:21:10.023Z,12.77
2018-11-14T16:23:39.709Z,12.40
2018-11-14T16:26:09.421Z,12.83
2018-11-14T16:28:39.329Z,13.53
2018-11-14T16:31:08.757Z,11.80
2018-11-14T16:33:38.230Z,11.63
2018-11-14T16:36:07.866Z,15.33
2018-11-14T16:38:37.105Z,13.80
2018-11-14T16:41:06.892Z,14.60
2018-11-14T16:43:36.189Z,15.37
2018-11-14T16:46:06.626Z,16.47
2018-11-14T16:48:36.105Z,16.67
2018-11-14T16:51:06.081Z,10.40
2018-11-14T16:53:35.527Z,13.43
2018-11-14T16:56:05.510Z,11.93
2018-11-14T16:58:35.045Z,15.67
2018-11-14T17:01:04.448Z,11.30
2018-11-14T17:03:33.974Z,9.70
2018-11-14T17:06:03.382Z,9.70
2018-11-14T17:08:33.185Z,10.80
2018-11-14T17:11:02.736Z,12.77
2018-11-14T17:13:32.382Z,14.47
2018-11-14T17:16:02.087Z,13.40
2018-11-14T17:18:31.590Z,14.43
2018-11-14T17:21:01.115Z,14.63
2018-11-14T17:23:30.547Z,15.63
2018-11-14T17:25:59.791Z,12.43
2018-11-14T17:28:29.255Z,11.80
2018-11-14T17:30:58.598Z,8.60
2018-11-14T17:33:27.899Z,11.77
2018-11-14T17:35:57.459Z,11.93
2018-11-14T17:38:27.112Z,9.73
2018-11-14T17:40:56.508Z,9.87
2018-11-14T17:43:26.018Z,9.53
2018-11-14T17:45:57.370Z,10.43
2018-11-14T17:48:27.072Z,9.47
2018-11-14T17:50:56.631Z,10.33
2018-11-14T17:53:26.081Z,9.07
2018-11-14T17:55:55.688Z,11.47
2018-11-14T17:58:24.995Z,15.23
2018-11-14T18:00:54.408Z,13.63
2018-11-14T18:03:23.794Z,12.57
2018-11-14T18:05:53.296Z,12.27
2018-11-14T18:08:22.799Z,9.37
2018-11-14T18:10:52.383Z,11.47
2018-11-14T18:13:21.807Z,11.67
2018-11-14T18:15:51.926Z,11.27
2018-11-14T18:18:21.532Z,10.53
2018-11-14T18:20:50.942Z,11.67
2018-11-14T18:23:20.378Z,17.20
2018-11-14T18:25:50.106Z,12.30
2018-11-14T18:28:20.377Z,12.87
2018-11-14T18:30:49.871Z,13.10
2018-11-14T18:33:19.376Z,14.13
2018-11-14T18:35:48.778Z,12.83
2018-11-14T18:38:18.075Z,12.90
2018-11-14T18:40:47.480Z,18.73
2018-11-14T18:43:16.984Z,14.53
2018-11-14T18:45:46.543Z,18.40
2018-11-14T18:48:17.366Z,15.53
2018-11-14T18:50:47.032Z,12.77
2018-11-14T18:53:17.355Z,13.90
2018-11-14T18:55:46.788Z,15.10
2018-11-14T18:58:16.160Z,17.07
2018-11-14T19:00:45.969Z,13.90
2018-11-14T19:03:15.372Z,15.93
2018-11-14T19:05:44.877Z,13.40
2018-11-14T19:08:14.179Z,17.37
2018-11-14T19:10:45.123Z,15.93
2018-11-14T19:13:14.597Z,13.37
2018-11-14T19:15:43.914Z,13.80
2018-11-14T19:18:13.423Z,14.53
2018-11-14T19:20:42.951Z,11.97
2018-11-14T19:23:12.326Z,12.27
2018-11-14T19:25:41.814Z,12.73
2018-11-14T19:28:11.107Z,12.07
2018-11-14T19:30:40.661Z,12.13
2018-11-14T19:33:09.873Z,11.63
2018-11-14T19:35:39.163Z,12.10
2018-11-14T19:38:08.535Z,12.97
2018-11-14T19:40:38.418Z,13.00
2018-11-14T19:43:10.628Z,15.93
2018-11-14T19:45:40.789Z,14.87
2018-11-14T19:48:10.643Z,12.40
2018-11-14T19:50:40.374Z,14.90
2018-11-14T19:53:09.757Z,18.93
2018-11-14T19:55:39.319Z,14.57
2018-11-14T19:58:08.662Z,16.77
2018-11-14T20:00:39.124Z,14.07
2018-11-14T20:03:09.123Z,14.57
2018-11-14T20:05:38.410Z,13.20
2018-11-14T20:08:07.907Z,11.47
2018-11-14T20:10:37.313Z,12.10
2018-11-14T20:13:06.692Z,11.90
2018-11-14T20:15:37.140Z,14.37
2018-11-14T20:18:07.149Z,13.33
2018-11-14T20:20:37.985Z,15.97
2018-11-14T20:23:07.391Z,15.43
2018-11-14T20:25:36.922Z,17.00
2018-11-14T20:28:06.501Z,12.93
2018-11-14T20:30:37.271Z,11.83
2018-11-14T20:33:10.976Z,11.63
2018-11-14T20:35:40.440Z,12.47
2018-11-14T20:38:10.053Z,17.03
2018-11-14T20:40:41.171Z,14.93
2018-11-14T20:43:10.912Z,14.40
2018-11-14T20:45:40.411Z,12.90
2018-11-14T20:48:10.283Z,12.83
2018-11-14T20:50:39.818Z,13.93
2018-11-14T20:53:09.262Z,13.63
2018-11-14T20:55:38.763Z,13.60
2018-11-14T20:58:08.148Z,16.40
2018-11-14T21:00:38.348Z,14.17
2018-11-14T21:03:08.482Z,14.93
2018-11-14T21:05:37.739Z,16.20
2018-11-14T21:08:07.367Z,12.93
2018-11-14T21:10:36.774Z,14.37
2018-11-14T21:13:06.746Z,14.00
2018-11-14T21:15:37.523Z,16.03
2018-11-14T21:18:07.332Z,14.70
2018-11-14T21:20:36.737Z,12.83
2018-11-14T21:23:06.447Z,16.20
2018-11-14T21:25:36.056Z,13.13
2018-11-14T21:28:05.865Z,14.53
2018-11-14T21:30:35.470Z,13.20
2018-11-14T21:33:04.978Z,17.47
2018-11-14T21:35:35.812Z,12.53
2018-11-14T21:38:06.868Z,15.83
2018-11-14T21:40:36.254Z,12.30
2018-11-14T21:43:06.423Z,13.77
2018-11-14T21:45:35.676Z,14.20
2018-11-14T21:48:14.357Z,13.87
2018-11-14T21:50:43.814Z,14.27
2018-11-14T21:53:13.235Z,13.13
2018-11-14T21:55:42.447Z,17.40
2018-11-14T21:58:11.990Z,20.80
2018-11-14T22:00:41.808Z,22.17
2018-11-14T22:03:11.721Z,17.80
2018-11-14T22:05:41.301Z,17.97
2018-11-14T22:08:10.878Z,15.83
2018-11-14T22:10:40.455Z,14.73
2018-11-14T22:13:09.846Z,14.57
2018-11-14T22:15:39.106Z,13.30
2018-11-14T22:18:08.443Z,14.90
2018-11-14T22:20:37.840Z,16.30
2018-11-14T22:23:07.243Z,17.50
2018-11-14T22:25:36.643Z,15.93
2018-11-14T22:28:06.172Z,18.23
2018-11-14T22:30:35.855Z,17.30
2018-11-14T22:33:05.290Z,18.50
2018-11-14T22:35:34.643Z,16.00
2018-11-14T22:38:04.264Z,14.07
2018-11-14T22:40:33.670Z,14.10
2018-11-14T22:43:03.036Z,15.27
2018-11-14T22:45:33.187Z,15.97
2018-11-14T22:48:02.693Z,23.60
2018-11-14T22:50:32.171Z,27.43
2018-11-14T22:53:01.701Z,23.60
2018-11-14T22:55:30.984Z,38.50
2018-11-14T22:58:00.400Z,13.73
2018-11-14T23:00:31.338Z,30.50
2018-11-14T23:03:02.281Z,12.37
2018-11-14T23:05:31.509Z,25.20
2018-11-14T23:08:01.180Z,28.77
2018-11-14T23:10:30.898Z,12.17
2018-11-14T23:13:00.226Z,12.23
2018-11-14T23:15:30.024Z,15.27
2018-11-14T23:17:59.710Z,32.53
2018-11-14T23:20:28.982Z,17.67
2018-11-14T23:22:58.298Z,43.73
2018-11-14T23:25:27.603Z,41.33
2018-11-14T23:27:57.214Z,32.80
2018-11-14T23:30:27.479Z,93.80
2018-11-14T23:32:57.451Z,124.37
2018-11-14T23:35:28.963Z,55.47
2018-11-14T23:37:59.530Z,40.53
2018-11-14T23:40:29.345Z,50.57
2018-11-14T23:42:58.848Z,48.30
2018-11-14T23:45:28.907Z,19.90
2018-11-14T23:47:58.125Z,15.13
2018-11-14T23:50:29.607Z,24.50
2018-11-14T23:53:00.137Z,19.67
2018-11-14T23:55:30.431Z,15.17
2018-11-14T23:58:00.275Z,13.10
